Time;durP1;ratioP1;P1;durP2;ratioP2;P2;SDS_P1;SDS_P2;PMS_P1;PMS_P2;Temp;Humidity;BMP_temperature;BMP_pressure;BME280_temperature;BME280_humidity;BME280_pressure;Samples;Min_cycle;Max_cycle;Signal;HPM_P1;HPM_P2
2022/03/05 01:25:47;;;;;;;13.52;8.05;;;;;;;2.92;47.47;96831.72;4986000;23;20130;-83
2022/03/05 01:28:14;;;;;;;14.85;8.35;;;;;;;2.85;47.38;96832.25;4961984;29;20132;-80
2022/03/05 01:30:42;;;;;;;14.48;7.80;;;;;;;2.83;47.56;96828.97;4962274;29;20048;-81
2022/03/05 01:33:09;;;;;;;13.38;8.52;;;;;;;2.75;47.26;96826.22;4961485;29;20059;-80
2022/03/05 01:35:37;;;;;;;15.85;8.48;;;;;;;2.72;47.74;96833.41;4961187;28;20043;-82
2022/03/05 01:38:04;;;;;;;13.63;8.52;;;;;;;2.68;47.62;96830.25;4961097;29;20469;-84
2022/03/05 01:40:32;;;;;;;13.05;8.52;;;;;;;2.71;48.04;96831.75;4961218;29;20422;-82
2022/03/05 01:43:01;;;;;;;14.20;7.78;;;;;;;2.67;47.54;96823.47;4960910;29;20054;-80
2022/03/05 01:45:28;;;;;;;16.25;8.90;;;;;;;2.64;48.06;96824.53;4961277;28;20055;-82
2022/03/05 01:47:56;;;;;;;13.48;8.57;;;;;;;2.65;47.78;96818.44;4960128;29;20055;-82
2022/03/05 01:50:23;;;;;;;14.32;8.75;;;;;;;2.69;48.21;96813.88;4960911;29;20058;-80
2022/03/05 01:52:51;;;;;;;14.77;8.55;;;;;;;2.79;47.87;96822.44;4960647;29;20502;-79
2022/03/05 01:55:19;;;;;;;14.15;8.35;;;;;;;2.81;47.45;96823.13;4961358;28;20445;-82
2022/03/05 01:57:46;;;;;;;16.35;9.45;;;;;;;2.81;47.57;96823.13;4960546;29;20072;-82
2022/03/05 02:00:16;;;;;;;15.30;8.35;;;;;;;2.79;47.30;96817.28;4960429;29;20048;-78
2022/03/05 02:02:45;;;;;;;15.23;8.18;;;;;;;2.81;47.58;96820.56;4960942;29;20047;-80
2022/03/05 02:05:14;;;;;;;14.45;8.43;;;;;;;2.87;47.34;96820.03;4960565;28;20057;-81
2022/03/05 02:07:43;;;;;;;13.77;8.20;;;;;;;2.89;47.22;96818.16;4959596;29;20051;-79
2022/03/05 02:10:11;;;;;;;14.77;8.13;;;;;;;2.86;47.21;96815.84;4960055;29;20502;-81
2022/03/05 02:12:39;;;;;;;13.50;8.07;;;;;;;2.87;47.09;96821.81;4960789;29;20110;-86
2022/03/05 02:15:08;;;;;;;13.07;8.13;;;;;;;2.87;47.17;96822.63;4959517;28;20059;-85
2022/03/05 02:17:38;;;;;;;16.00;8.82;;;;;;;2.89;47.56;96820.75;4959316;29;20062;-81
2022/03/05 02:20:07;;;;;;;12.68;7.85;;;;;;;2.93;47.23;96825.63;4960344;29;20055;-78
2022/03/05 02:22:36;;;;;;;13.15;8.95;;;;;;;2.96;47.30;96828.78;4959359;29;20058;-82
2022/03/05 02:25:04;;;;;;;14.93;8.55;;;;;;;2.96;47.03;96823.63;4958922;28;20059;-83
2022/03/05 02:27:32;;;;;;;14.65;9.35;;;;;;;2.93;47.42;96820.47;4958590;29;20051;-83
2022/03/05 02:29:59;;;;;;;13.60;7.95;;;;;;;2.93;47.51;96823.88;4959421;29;20438;-83
2022/03/05 02:32:27;;;;;;;16.92;8.77;;;;;;;2.91;47.29;96819.78;4959162;29;20051;-84
2022/03/05 02:34:55;;;;;;;14.45;9.05;;;;;;;2.89;47.31;96819.94;4977131;28;20051;-77
2022/03/05 02:37:22;;;;;;;17.10;9.63;;;;;;;2.91;47.20;96824.94;4978374;28;20035;-80
2022/03/05 02:39:51;;;;;;;15.10;8.68;;;;;;;2.82;47.09;96819.63;4968320;28;20315;-83
2022/03/05 02:42:18;;;;;;;15.43;9.35;;;;;;;2.76;47.05;96820.13;4963392;29;20051;-83
2022/03/05 02:44:46;;;;;;;14.80;8.50;;;;;;;2.71;47.23;96814.53;4961224;28;20058;-80
2022/03/05 02:47:14;;;;;;;13.35;8.65;;;;;;;2.69;47.45;96816.44;4959192;29;20074;-85
2022/03/05 02:49:42;;;;;;;16.13;8.95;;;;;;;2.72;47.22;96816.16;4962018;29;20059;-84
2022/03/05 02:52:09;;;;;;;17.83;10.15;;;;;;;2.66;47.29;96814.09;4960474;29;20055;-84
2022/03/05 02:54:37;;;;;;;15.30;8.57;;;;;;;2.56;47.09;96815.78;4960432;28;20047;-83
2022/03/05 02:57:07;;;;;;;15.38;8.93;;;;;;;2.46;47.90;96819.13;4960104;29;20501;-83
2022/03/05 02:59:35;;;;;;;13.43;8.32;;;;;;;2.51;47.68;96825.66;4960740;29;20051;-82
2022/03/05 03:02:03;;;;;;;15.43;8.52;;;;;;;2.57;47.72;96818.25;4960369;29;20051;-80
2022/03/05 03:04:31;;;;;;;12.90;8.77;;;;;;;2.60;47.58;96823.16;4959260;28;20078;-82
2022/03/05 03:06:58;;;;;;;17.90;9.00;;;;;;;2.58;47.43;96819.06;4958376;29;20082;-81
2022/03/05 03:09:27;;;;;;;13.60;8.93;;;;;;;2.54;47.57;96826.25;4959039;29;20194;-83
2022/03/05 03:11:55;;;;;;;15.55;9.23;;;;;;;2.56;47.45;96826.94;4960076;29;20058;-80
2022/03/05 03:14:24;;;;;;;14.07;8.88;;;;;;;2.58;47.67;96824.22;4960105;28;20057;-81
2022/03/05 03:16:51;;;;;;;18.67;10.75;;;;;;;2.57;47.61;96817.44;4959038;29;20051;-80
2022/03/05 03:19:19;;;;;;;16.95;10.07;;;;;;;2.56;47.77;96816.63;4959670;29;20086;-81
2022/03/05 03:21:47;;;;;;;15.88;10.00;;;;;;;2.55;47.55;96812.41;4959965;29;20176;-84
2022/03/05 03:24:14;;;;;;;15.35;9.75;;;;;;;2.48;47.36;96814.66;4959390;28;20047;-82
2022/03/05 03:26:42;;;;;;;14.30;9.15;;;;;;;2.39;47.63;96807.72;4958088;28;20051;-81
2022/03/05 03:29:09;;;;;;;14.50;9.40;;;;;;;2.35;48.38;96810.66;4958915;29;20056;-80
2022/03/05 03:31:38;;;;;;;14.65;9.30;;;;;;;2.36;48.34;96809.72;4958306;29;20062;-83
2022/03/05 03:34:06;;;;;;;15.10;9.82;;;;;;;2.40;47.96;96817.06;4958303;29;20055;-81
2022/03/05 03:36:33;;;;;;;15.00;10.48;;;;;;;2.39;47.77;96812.84;4957918;28;20043;-84
2022/03/05 03:39:01;;;;;;;16.35;10.45;;;;;;;2.28;47.63;96812.91;4958177;29;20055;-81
2022/03/05 03:41:28;;;;;;;24.95;14.98;;;;;;;2.17;48.11;96815.56;4958184;29;20047;-80
2022/03/05 03:43:56;;;;;;;35.28;17.30;;;;;;;2.07;48.31;96820.59;4957878;29;20502;-79
2022/03/05 03:46:23;;;;;;;28.92;15.98;;;;;;;1.95;48.16;96817.28;4957210;28;20078;-83
2022/03/05 03:48:52;;;;;;;26.48;17.02;;;;;;;1.89;48.63;96816.94;4958325;29;20051;-82
2022/03/05 03:51:20;;;;;;;34.97;19.13;;;;;;;1.83;48.63;96829.34;4957406;29;20062;-82
2022/03/05 03:53:47;;;;;;;32.38;17.17;;;;;;;1.82;49.02;96826.91;4957288;29;20055;-80
2022/03/05 03:56:15;;;;;;;32.72;18.02;;;;;;;1.82;48.92;96829.47;4956393;28;20043;-79
2022/03/05 03:58:42;;;;;;;31.23;16.52;;;;;;;1.79;48.71;96829.69;4957590;29;20059;-82
2022/03/05 04:01:10;;;;;;;28.42;17.08;;;;;;;1.72;49.00;96836.28;4957369;29;20525;-82
2022/03/05 04:03:38;;;;;;;25.90;15.35;;;;;;;1.66;48.85;96832.41;4961370;29;20058;-82
2022/03/05 04:06:06;;;;;;;20.50;12.02;;;;;;;1.53;49.15;96842.88;4971296;28;20047;-88
2022/03/05 04:08:42;;;;;;;22.48;13.20;;;;;;;1.46;49.31;96846.03;4955583;29;20058;-82
2022/03/05 04:11:10;;;;;;;20.48;11.82;;;;;;;1.43;49.48;96847.09;4958445;29;20118;-80
2022/03/05 04:13:38;;;;;;;21.02;11.55;;;;;;;1.55;49.86;96850.44;4964563;29;20075;-87
2022/03/05 04:16:06;;;;;;;19.67;10.98;;;;;;;1.63;49.56;96848.91;4956493;28;20081;-86
2022/03/05 04:18:34;;;;;;;16.17;10.65;;;;;;;1.70;49.23;96843.28;4958356;29;20122;-83
2022/03/05 04:21:02;;;;;;;17.73;10.88;;;;;;;1.65;49.37;96841.91;4957023;29;20059;-83
2022/03/05 04:23:31;;;;;;;20.20;10.77;;;;;;;1.56;49.05;96834.91;4957327;28;20059;-84
2022/03/05 04:25:59;;;;;;;17.10;10.65;;;;;;;1.60;49.74;96833.72;4955948;28;20051;-82
2022/03/05 04:28:26;;;;;;;19.92;10.98;;;;;;;1.70;49.37;96835.59;4957004;29;20139;-87
2022/03/05 04:30:54;;;;;;;21.63;11.82;;;;;;;1.70;49.14;96838.97;4957117;29;20529;-82
2022/03/05 04:33:22;;;;;;;21.27;11.93;;;;;;;1.64;49.08;96829.19;4957472;29;20453;-83
2022/03/05 04:35:49;;;;;;;21.88;12.60;;;;;;;1.55;48.87;96833.28;4956430;28;20098;-81
2022/03/05 04:38:17;;;;;;;17.67;10.30;;;;;;;1.41;49.27;96839.47;4958051;28;20047;-83
2022/03/05 04:40:46;;;;;;;20.48;10.35;;;;;;;1.28;49.57;96850.84;4960720;29;20080;-87
2022/03/05 04:43:13;;;;;;;17.17;10.60;;;;;;;1.16;49.66;96850.84;4960530;29;20428;-85
2022/03/05 04:45:41;;;;;;;20.38;11.57;;;;;;;1.11;50.04;96852.13;4960025;28;20051;-83
2022/03/05 04:48:08;;;;;;;16.05;9.77;;;;;;;1.15;50.59;96846.63;4959225;29;20063;-83
2022/03/05 04:50:36;;;;;;;18.30;9.63;;;;;;;1.17;50.12;96847.31;4960377;29;20054;-85
2022/03/05 04:53:04;;;;;;;16.83;9.88;;;;;;;1.20;50.24;96852.25;4959914;29;20058;-82
2022/03/05 04:55:31;;;;;;;16.05;10.10;;;;;;;1.21;49.95;96851.31;4959694;28;20419;-82
2022/03/05 04:58:00;;;;;;;20.45;11.50;;;;;;;1.20;49.99;96853.97;4958869;29;20502;-81
2022/03/05 05:00:28;;;;;;;16.55;10.43;;;;;;;1.19;50.08;96844.66;4959920;29;20526;-83
2022/03/05 05:02:55;;;;;;;20.08;11.13;;;;;;;1.21;50.18;96850.50;4960285;29;20047;-83
2022/03/05 05:05:24;;;;;;;15.40;9.73;;;;;;;1.22;49.76;96850.38;4960065;28;20047;-87
2022/03/05 05:07:51;;;;;;;17.77;12.15;;;;;;;1.17;50.07;96846.50;4959353;29;20498;-83
2022/03/05 05:10:19;;;;;;;16.05;10.00;;;;;;;1.20;50.51;96847.09;4960709;29;20058;-85
2022/03/05 05:12:46;;;;;;;14.93;9.45;;;;;;;1.26;50.25;96847.56;4961222;29;20055;-85
2022/03/05 05:15:15;;;;;;;21.65;11.05;;;;;;;1.31;50.71;96848.03;4960574;28;20055;-86
2022/03/05 05:17:43;;;;;;;16.65;10.00;;;;;;;1.37;50.50;96852.69;4960585;29;20058;-85
2022/03/05 05:20:11;;;;;;;23.83;11.50;;;;;;;1.49;50.40;96856.91;4960996;29;20074;-80
2022/03/05 05:22:39;;;;;;;16.60;10.75;;;;;;;1.62;50.02;96856.78;4960884;29;20059;-81
2022/03/05 05:25:07;;;;;;;17.65;10.15;;;;;;;1.71;49.75;96860.38;4961241;28;20430;-82
2022/03/05 05:27:36;;;;;;;18.15;10.80;;;;;;;1.75;49.74;96867.72;4961794;29;20055;-82
2022/03/05 05:30:05;;;;;;;17.38;9.45;;;;;;;1.80;49.51;96870.75;4960047;29;20059;-82
2022/03/05 05:32:34;;;;;;;17.40;10.38;;;;;;;1.81;49.69;96866.41;4960677;29;20051;-83
2022/03/05 05:35:01;;;;;;;16.25;10.05;;;;;;;1.82;49.62;96865.50;4960873;28;20051;-81
2022/03/05 05:37:29;;;;;;;18.02;11.73;;;;;;;1.82;49.71;96865.50;4959471;29;20521;-81
2022/03/05 05:39:57;;;;;;;16.13;10.13;;;;;;;1.84;49.41;96866.19;4960546;29;20341;-82
2022/03/05 05:42:24;;;;;;;15.57;9.45;;;;;;;1.89;49.51;96873.53;4960806;29;20051;-82
2022/03/05 05:44:52;;;;;;;15.43;9.05;;;;;;;1.90;49.32;96875.97;4960302;28;20051;-81
2022/03/05 05:47:19;;;;;;;15.85;10.10;;;;;;;1.92;49.32;96874.09;4968296;29;20098;-78
2022/03/05 05:49:48;;;;;;;13.52;9.32;;;;;;;1.96;49.26;96880.63;4958934;28;20058;-83
2022/03/05 05:52:16;;;;;;;17.13;10.40;;;;;;;1.97;49.22;96882.28;4958712;29;20051;-81
2022/03/05 05:54:44;;;;;;;16.77;10.45;;;;;;;2.00;49.34;96876.06;4958639;28;20526;-84
2022/03/05 05:57:12;;;;;;;17.73;10.45;;;;;;;1.99;49.35;96883.00;4958205;29;20055;-83
2022/03/05 05:59:39;;;;;;;18.42;10.13;;;;;;;1.94;49.44;96889.41;4957977;29;20541;-81
2022/03/05 06:02:07;;;;;;;16.17;10.02;;;;;;;1.93;50.62;96885.22;4957924;29;20055;-81
2022/03/05 06:04:35;;;;;;;17.17;10.02;;;;;;;1.94;50.91;96885.09;4957842;28;20051;-81
2022/03/05 06:07:04;;;;;;;18.60;11.25;;;;;;;1.98;50.31;96889.06;4957384;29;20405;-82
2022/03/05 06:09:32;;;;;;;16.75;10.10;;;;;;;2.00;50.04;96896.66;4957834;29;20059;-84
2022/03/05 06:11:59;;;;;;;16.45;10.60;;;;;;;2.02;49.85;96898.16;4957814;29;20051;-81
2022/03/05 06:14:27;;;;;;;14.68;9.50;;;;;;;1.98;49.50;96894.19;4961428;28;20062;-79
2022/03/05 06:17:03;;;;;;;16.33;10.55;;;;;;;1.92;49.91;96893.88;4979395;28;20046;-89
2022/03/05 06:19:47;;;;;;;17.20;10.40;;;;;;;1.82;50.11;96904.06;4980930;28;20042;-89
2022/03/05 06:22:23;;;;;;;20.17;10.93;;;;;;;1.70;49.68;96905.00;4979695;28;20051;-86
2022/03/05 06:24:54;;;;;;;18.25;10.90;;;;;;;1.62;50.00;96906.44;4977888;28;20047;-87
2022/03/05 06:27:43;;;;;;;19.50;11.98;;;;;;;1.55;50.02;96905.28;4977257;28;20048;-87
2022/03/05 06:30:14;;;;;;;18.70;10.93;;;;;;;1.52;50.57;96910.63;4977744;28;20058;-91
2022/03/05 06:32:46;;;;;;;17.55;10.75;;;;;;;1.56;50.59;96916.38;4979372;28;20039;-91
2022/03/05 06:35:23;;;;;;;39.75;21.63;;;;;;;1.63;51.25;96909.81;4980211;28;20043;-91
2022/03/05 06:37:58;;;;;;;16.63;10.77;;;;;;;1.79;50.61;96919.72;4979989;28;20055;-89
2022/03/05 06:40:26;;;;;;;16.77;9.88;;;;;;;1.93;50.22;96921.25;4980331;28;20059;-91
2022/03/05 06:42:54;;;;;;;19.27;10.50;;;;;;;1.99;49.71;96921.59;4980323;28;20038;-91
2022/03/05 06:45:24;;;;;;;16.00;10.35;;;;;;;2.02;49.97;96916.19;4980043;28;20099;-88
2022/03/05 06:47:54;;;;;;;18.33;10.32;;;;;;;2.05;50.30;96921.06;4979864;28;20035;-90
2022/03/05 06:50:25;;;;;;;16.38;10.35;;;;;;;2.13;50.32;96911.94;4979869;28;20059;-90
2022/03/05 06:52:57;;;;;;;15.77;10.77;;;;;;;2.25;50.14;96916.09;4980067;28;20046;-90
2022/03/05 06:55:25;;;;;;;15.88;10.27;;;;;;;2.30;49.58;96911.44;4979938;28;20054;-89
2022/03/05 06:57:53;;;;;;;19.08;10.98;;;;;;;2.33;49.50;96915.50;4979496;28;20031;-88
2022/03/05 07:00:25;;;;;;;15.13;9.95;;;;;;;2.36;49.44;96920.41;4979934;28;20139;-89
2022/03/05 07:02:53;;;;;;;17.67;11.15;;;;;;;2.36;49.24;96913.53;4979811;28;20058;-88
2022/03/05 07:05:28;;;;;;;15.40;10.45;;;;;;;2.45;50.07;96915.34;4979667;28;20054;-91
2022/03/05 07:08:00;;;;;;;18.88;10.98;;;;;;;2.62;51.54;96921.72;4979438;28;20042;-92
2022/03/05 07:10:32;;;;;;;18.15;11.05;;;;;;;2.86;50.17;96921.50;4979670;28;20062;-88
2022/03/05 07:13:01;;;;;;;18.52;11.40;;;;;;;3.06;49.84;96924.16;4979584;28;20062;-88
2022/03/05 07:15:34;;;;;;;19.85;10.35;;;;;;;3.21;49.01;96928.03;4979550;28;20035;-87
2022/03/05 07:18:13;;;;;;;18.25;11.40;;;;;;;3.34;48.19;96922.69;4979312;28;20070;-85
2022/03/05 07:20:42;;;;;;;16.80;11.23;;;;;;;3.48;48.88;96929.28;4979628;28;20051;-91
2022/03/05 07:28:35;;;;;;;18.40;11.07;;;;;;;4.32;48.17;96931.53;5175319;23;20047;-79
2022/03/05 08:06:44;;;;;;;18.60;12.23;;;;;;;6.06;43.82;96939.91;5517527;23;20062;-78
2022/03/05 08:09:11;;;;;;;18.23;12.13;;;;;;;6.19;44.23;96940.38;4955343;28;20066;-76
2022/03/05 08:26:13;;;;;;;18.85;12.20;;;;;;;7.01;40.51;96933.31;4972759;28;20172;-81
2022/03/05 08:28:45;;;;;;;19.48;11.88;;;;;;;6.95;41.14;96939.13;5002839;28;20090;-80
2022/03/05 08:31:16;;;;;;;24.85;13.43;;;;;;;6.96;42.02;96930.38;4991349;28;20474;-74
2022/03/05 08:33:44;;;;;;;20.02;12.32;;;;;;;7.14;41.96;96929.50;4977948;28;20106;-76
2022/03/05 08:38:53;;;;;;;16.08;11.10;;;;;;;7.59;40.10;96931.09;5504146;23;20054;-79
2022/03/05 08:47:10;;;;;;;16.08;10.48;;;;;;;8.11;37.99;96938.78;5410575;23;20062;-79
2022/03/05 08:54:56;;;;;;;15.00;10.80;;;;;;;8.38;37.55;96937.69;5161433;23;20071;-80
2022/03/05 09:08:28;;;;;;;13.47;8.90;;;;;;;9.10;36.28;96918.09;5268350;23;20058;-79
2022/03/05 09:19:00;;;;;;;13.95;8.73;;;;;;;9.83;33.54;96904.88;4261744;26;20077;-81
2022/03/05 09:21:28;;;;;;;12.25;7.97;;;;;;;9.84;33.03;96900.50;5263346;23;20099;-81
2022/03/05 09:43:05;;;;;;;8.23;6.60;;;;;;;11.12;28.43;96899.97;5235114;23;20343;-81
2022/03/05 09:45:34;;;;;;;16.83;7.22;;;;;;;11.01;28.48;96893.38;4971697;28;20063;-80
2022/03/05 09:48:01;;;;;;;10.00;5.97;;;;;;;11.02;27.91;96910.69;4978750;28;20057;-80
2022/03/05 09:50:32;;;;;;;10.45;6.55;;;;;;;11.09;28.06;96906.38;4981286;28;20043;-81
2022/03/05 09:53:00;;;;;;;10.93;7.05;;;;;;;11.17;28.21;96902.84;4980320;28;20035;-81
2022/03/05 09:55:29;;;;;;;8.65;6.85;;;;;;;11.37;27.84;96897.94;4980377;28;20047;-82
2022/03/05 09:57:57;;;;;;;9.20;6.45;;;;;;;11.65;27.46;96899.91;4980101;28;20050;-81
2022/03/05 10:00:27;;;;;;;7.60;6.30;;;;;;;11.91;27.46;96905.50;4981295;28;20094;-80
2022/03/05 10:02:55;;;;;;;7.05;5.22;;;;;;;12.32;26.36;96904.16;4981267;28;20042;-80
2022/03/05 10:05:26;;;;;;;7.28;5.00;;;;;;;12.56;25.70;96916.09;4981044;28;20047;-81
2022/03/05 10:10:47;;;;;;;7.15;6.00;;;;;;;13.02;25.61;96905.22;4960501;28;20067;-80
2022/03/05 10:13:18;;;;;;;9.13;5.53;;;;;;;13.30;24.51;96910.50;4962021;28;20043;-81
2022/03/05 10:15:50;;;;;;;7.35;5.50;;;;;;;13.26;23.96;96918.91;4961012;28;20055;-80
2022/03/05 10:18:18;;;;;;;9.38;5.47;;;;;;;12.77;24.32;96916.09;4961420;28;20043;-81
2022/03/05 10:20:51;;;;;;;7.03;5.68;;;;;;;12.48;24.76;96913.59;4960827;28;20046;-80
2022/03/05 10:23:19;;;;;;;6.35;5.35;;;;;;;12.70;25.07;96904.75;4961448;28;20107;-79
2022/03/05 10:25:49;;;;;;;8.02;4.82;;;;;;;13.02;23.92;96907.84;4960885;28;20035;-80
2022/03/05 10:28:18;;;;;;;6.57;5.30;;;;;;;13.00;24.38;96909.84;4961058;28;20049;-81
2022/03/05 10:30:49;;;;;;;9.70;6.57;;;;;;;13.19;24.33;96903.94;4961256;28;20102;-81
2022/03/05 10:33:29;;;;;;;7.78;5.97;;;;;;;13.45;23.83;96912.22;4961144;28;20047;-80
2022/03/05 10:35:58;;;;;;;7.47;5.43;;;;;;;13.77;23.95;96910.75;4954546;28;20044;-79
2022/03/05 10:38:45;;;;;;;8.85;6.53;;;;;;;13.51;23.71;96908.81;4958996;28;20040;-80
2022/03/05 10:41:14;;;;;;;8.02;6.60;;;;;;;13.49;24.52;96909.03;4958612;28;20050;-80
2022/03/05 10:43:42;;;;;;;7.22;6.15;;;;;;;14.12;23.83;96908.09;4961186;28;20050;-81
2022/03/05 10:46:12;;;;;;;10.55;7.68;;;;;;;14.66;22.67;96899.38;5079616;23;20287;-80
2022/03/05 10:48:41;;;;;;;9.48;6.90;;;;;;;14.63;22.68;96899.78;4978998;28;20083;-80
2022/03/05 10:51:12;;;;;;;8.85;6.38;;;;;;;15.62;21.48;96898.91;4978797;28;20047;-80
2022/03/05 10:53:44;;;;;;;17.65;6.05;;;;;;;16.67;20.30;96906.59;4978928;28;20148;-80
2022/03/05 10:56:27;;;;;;;8.43;5.65;;;;;;;16.69;19.51;96907.19;4978471;28;20043;-81
2022/03/05 10:59:08;;;;;;;6.93;5.63;;;;;;;15.37;20.38;96901.41;4979069;28;20058;-80
2022/03/05 11:01:38;;;;;;;15.23;6.45;;;;;;;15.21;20.88;96899.19;4979033;28;20053;-79
2022/03/05 11:04:07;;;;;;;6.32;5.43;;;;;;;14.98;21.19;96903.06;4979316;28;20034;-80
2022/03/05 11:06:37;;;;;;;8.05;4.97;;;;;;;15.08;20.71;96899.22;4979246;28;20099;-80
2022/03/05 11:09:06;;;;;;;7.47;5.78;;;;;;;15.07;21.21;96895.78;4979691;28;20043;-81
2022/03/05 11:11:36;;;;;;;7.25;5.30;;;;;;;15.53;20.41;96892.28;4979768;28;20036;-80
2022/03/05 11:14:05;;;;;;;6.82;5.20;;;;;;;15.60;20.39;96892.25;4979717;28;20039;-80
2022/03/05 11:16:34;;;;;;;5.88;4.82;;;;;;;15.20;20.49;96889.72;4979129;28;20051;-80
2022/03/05 11:19:04;;;;;;;6.13;4.93;;;;;;;14.51;21.01;96902.16;4963154;28;20063;-80
2022/03/05 11:21:32;;;;;;;6.65;5.50;;;;;;;14.08;21.63;96888.50;4979581;28;20102;-80
2022/03/05 11:24:00;;;;;;;8.15;5.40;;;;;;;13.77;21.87;96890.63;4979745;28;20046;-81
2022/03/05 11:26:30;;;;;;;6.85;5.53;;;;;;;13.27;22.27;96889.06;4979151;28;20106;-80
2022/03/05 11:29:19;;;;;;;11.02;5.70;;;;;;;12.66;22.69;96897.44;4979490;28;20039;-80
2022/03/05 11:31:47;;;;;;;7.55;5.63;;;;;;;12.32;23.66;96894.50;4979355;28;20045;-80
2022/03/05 11:34:19;;;;;;;7.93;5.68;;;;;;;11.97;23.37;96890.09;4979680;28;20095;-80
2022/03/05 11:36:49;;;;;;;8.52;5.10;;;;;;;11.72;23.73;96887.75;4977067;28;20116;-81
2022/03/05 11:39:41;;;;;;;6.32;4.68;;;;;;;11.61;23.43;96890.81;5787543;23;20045;-81
2022/03/05 11:42:09;;;;;;;7.00;4.82;;;;;;;11.79;23.83;96880.81;5113781;23;20042;-80
2022/03/05 11:44:42;;;;;;;6.45;5.18;;;;;;;11.84;23.34;96877.66;5061187;23;20055;-81
2022/03/05 11:47:31;;;;;;;8.77;5.65;;;;;;;11.73;23.44;96877.09;4977421;28;20077;-81
2022/03/05 11:50:19;;;;;;;7.20;5.28;;;;;;;11.34;23.94;96872.16;4977456;28;20063;-81
2022/03/05 11:53:06;;;;;;;8.23;5.10;;;;;;;11.16;24.00;96877.75;4974094;28;20542;-81
2022/03/05 11:55:41;;;;;;;6.05;4.63;;;;;;;11.74;24.03;96859.63;4972699;29;20530;-81
2022/03/05 11:58:35;;;;;;;5.88;4.80;;;;;;;13.12;23.05;96855.94;4972590;28;20051;-81
2022/03/05 12:01:38;;;;;;;7.28;5.20;;;;;;;14.40;21.88;96856.28;4964542;29;20066;-81
2022/03/05 12:04:22;;;;;;;7.00;5.10;;;;;;;14.58;20.80;96870.69;4972286;29;20082;-81
2022/03/05 12:09:45;;;;;;;9.73;5.80;;;;;;;12.88;22.53;96858.97;5110668;23;20051;-81
2022/03/05 12:12:18;;;;;;;8.40;5.50;;;;;;;12.75;22.99;96847.41;4956579;29;20057;-81
2022/03/05 12:15:11;;;;;;;6.25;4.93;;;;;;;12.86;22.46;96842.66;4956242;28;20055;-81
2022/03/05 12:17:42;;;;;;;9.00;5.32;;;;;;;13.06;23.06;96846.22;4954763;29;20058;-81
2022/03/05 12:20:11;;;;;;;5.32;4.15;;;;;;;13.35;22.33;96832.13;4955687;28;20055;-81
2022/03/05 12:22:55;;;;;;;7.80;4.90;;;;;;;13.88;21.76;96830.75;4958087;29;20059;-81
2022/03/05 12:25:24;;;;;;;6.47;5.05;;;;;;;14.65;21.12;96836.56;4958238;29;20063;-81
2022/03/05 12:27:53;;;;;;;7.82;5.60;;;;;;;14.33;21.17;96834.50;4954421;28;20544;-81
2022/03/05 12:30:23;;;;;;;7.82;5.68;;;;;;;13.36;21.62;96839.00;4955266;29;20110;-81
2022/03/05 12:32:52;;;;;;;6.63;4.93;;;;;;;12.43;22.73;96834.84;4956934;29;20058;-81
2022/03/05 12:35:21;;;;;;;6.93;5.30;;;;;;;11.81;23.31;96837.00;4958012;28;20482;-81
2022/03/05 12:37:50;;;;;;;7.75;5.85;;;;;;;11.29;23.85;96827.50;4968012;28;20047;-81
2022/03/05 12:40:18;;;;;;;7.35;5.18;;;;;;;10.99;24.58;96817.03;4966963;29;20047;-80
2022/03/05 12:42:48;;;;;;;8.25;5.10;;;;;;;10.87;24.60;96823.72;4966478;29;20490;-81
2022/03/05 12:45:19;;;;;;;8.57;5.38;;;;;;;10.57;24.51;96815.81;4957291;29;20051;-81
2022/03/05 12:47:47;;;;;;;6.68;4.78;;;;;;;10.36;25.07;96810.44;4954168;28;20055;-80
2022/03/05 12:50:27;;;;;;;6.53;5.32;;;;;;;10.16;25.55;96808.25;4954735;29;20054;-80
2022/03/05 12:52:58;;;;;;;8.13;5.10;;;;;;;10.00;25.56;96811.00;4954380;29;20059;-81
2022/03/05 12:55:35;;;;;;;6.30;4.72;;;;;;;9.77;25.82;96810.94;4954579;29;20063;-79
2022/03/05 12:58:08;;;;;;;7.28;5.03;;;;;;;9.60;25.92;96799.78;4953985;28;20429;-81
2022/03/05 13:00:37;;;;;;;8.98;5.47;;;;;;;9.46;26.33;96803.94;4958227;28;20076;-81
2022/03/05 13:03:06;;;;;;;7.07;5.40;;;;;;;9.38;26.83;96794.38;4964682;29;20068;-81
2022/03/05 13:05:34;;;;;;;7.45;5.30;;;;;;;9.35;26.68;96797.31;4960551;29;20055;-81
2022/03/05 13:08:03;;;;;;;7.45;5.63;;;;;;;9.34;27.25;96803.50;4958771;28;20070;-81
2022/03/05 13:10:30;;;;;;;8.90;5.85;;;;;;;9.29;26.95;96797.97;4958758;29;20043;-80
2022/03/05 13:12:58;;;;;;;7.22;5.03;;;;;;;9.18;27.07;96800.94;4958466;29;20465;-81
2022/03/05 13:15:32;;;;;;;8.27;5.80;;;;;;;9.07;26.98;96800.34;4958540;29;20613;-81
2022/03/05 13:18:11;;;;;;;8.27;5.25;;;;;;;8.98;27.42;96796.13;4957396;28;20509;-81
2022/03/05 13:20:38;;;;;;;7.32;5.53;;;;;;;8.93;27.36;96798.44;4958223;29;20055;-81
2022/03/05 13:23:07;;;;;;;6.53;4.68;;;;;;;8.83;27.05;96800.38;4958642;29;20051;-81
2022/03/05 13:25:42;;;;;;;6.80;4.65;;;;;;;8.66;26.97;96797.81;4958630;28;20051;-81
2022/03/05 13:30:49;;;;;;;6.43;4.95;;;;;;;8.40;27.86;96786.78;4978649;23;20051;-89
2022/03/05 13:34:08;;;;;;;8.70;5.10;;;;;;;8.40;27.61;96791.97;4960647;29;20063;-90
2022/03/05 13:36:52;;;;;;;7.70;5.03;;;;;;;8.32;27.80;96789.38;4960077;29;20140;-91
2022/03/05 13:39:44;;;;;;;10.45;5.38;;;;;;;8.19;27.84;96785.47;4966468;28;20110;-90
2022/03/05 13:42:23;;;;;;;8.13;5.63;;;;;;;8.17;27.96;96792.59;4970838;28;20083;-86
2022/03/05 13:44:53;;;;;;;9.80;5.75;;;;;;;8.19;28.29;96787.25;4980302;28;20114;-88
2022/03/05 13:47:26;;;;;;;;;;;;;;;8.18;28.04;96778.66;4979805;29;20031;-90
2022/03/05 13:50:01;;;;;;;7.72;5.10;;;;;;;8.12;28.29;96784.50;4975255;23;19977;-89
2022/03/05 13:52:36;;;;;;;7.20;5.00;;;;;;;8.14;28.35;96782.53;4969480;28;20043;-92
2022/03/05 13:55:17;;;;;;;7.90;5.40;;;;;;;8.17;28.79;96776.22;4967682;28;20055;-90
2022/03/05 13:57:54;;;;;;;8.90;5.90;;;;;;;8.28;28.82;96772.47;4964546;29;20244;-89
2022/03/05 14:00:27;;;;;;;10.02;6.65;;;;;;;8.32;28.33;96774.56;4978003;28;20039;-87
2022/03/05 14:02:58;;;;;;;8.27;5.18;;;;;;;8.23;28.29;96793.75;4966724;29;20533;-90
2022/03/05 14:05:30;;;;;;;8.30;5.43;;;;;;;8.14;28.42;96787.75;4963791;28;20078;-92
2022/03/05 14:08:00;;;;;;;8.38;5.72;;;;;;;8.06;28.76;96779.94;4959382;28;20047;-87
2022/03/05 14:10:30;;;;;;;8.45;5.13;;;;;;;7.93;28.32;96784.78;4959573;28;20426;-89
2022/03/05 14:13:02;;;;;;;8.10;5.07;;;;;;;7.80;28.72;96791.25;4962413;29;20486;-92
2022/03/05 14:15:38;;;;;;;7.00;5.05;;;;;;;7.70;28.93;96785.41;4969409;29;20058;-89
2022/03/05 14:18:14;;;;;;;;;;;;;;;7.70;28.89;96787.19;4965972;28;20049;-90
2022/03/05 14:20:49;;;;;;;8.05;4.72;;;;;;;7.69;29.20;96783.75;4962409;29;19971;-87
2022/03/05 14:23:18;;;;;;;7.95;5.25;;;;;;;7.66;29.13;96778.09;4959973;29;20067;-88
2022/03/05 14:25:49;;;;;;;7.35;4.72;;;;;;;7.69;29.25;96783.75;4959028;29;20058;-85
2022/03/05 14:28:20;;;;;;;9.25;5.78;;;;;;;7.70;29.11;96780.22;4962233;28;20066;-88
2022/03/05 14:30:56;;;;;;;8.43;5.87;;;;;;;7.72;29.04;96788.66;4964493;29;20137;-87
2022/03/05 14:33:33;;;;;;;8.90;5.82;;;;;;;7.71;29.25;96781.81;4967234;29;20297;-87
2022/03/05 14:36:03;;;;;;;11.30;5.97;;;;;;;7.71;29.76;96776.63;4960143;29;20477;-91
2022/03/05 14:38:31;;;;;;;8.30;5.82;;;;;;;7.66;29.67;96784.09;4960638;28;20055;-89
2022/03/05 14:41:02;;;;;;;7.60;5.75;;;;;;;7.58;29.64;96778.88;4961167;29;20047;-92
2022/03/05 14:43:30;;;;;;;8.95;6.47;;;;;;;7.51;30.31;96780.50;4962380;29;20111;-88
2022/03/05 14:46:04;;;;;;;9.88;5.82;;;;;;;7.48;30.13;96781.63;4963467;29;20052;-89
2022/03/05 14:48:40;;;;;;;9.27;6.00;;;;;;;7.45;29.80;96781.13;4969902;28;20146;-86
2022/03/05 14:51:10;;;;;;;8.38;5.97;;;;;;;7.39;30.10;96798.94;4971262;29;20138;-91
2022/03/05 14:53:38;;;;;;;11.75;6.32;;;;;;;7.33;30.52;96789.19;4970656;29;20051;-92
2022/03/05 14:56:07;;;;;;;7.57;5.68;;;;;;;7.30;30.75;96792.06;4972752;29;20086;-90
2022/03/05 14:58:38;;;;;;;9.32;5.45;;;;;;;7.29;30.60;96795.66;4964555;28;20437;-88
2022/03/05 15:01:08;;;;;;;8.50;5.45;;;;;;;7.21;30.03;96791.25;4964012;28;20055;-85
2022/03/05 15:03:36;;;;;;;7.95;5.93;;;;;;;7.16;30.51;96792.69;4959013;29;20051;-87
2022/03/05 15:06:04;;;;;;;9.68;6.32;;;;;;;7.13;30.44;96785.22;4958491;29;20083;-83
2022/03/05 15:08:31;;;;;;;8.40;5.55;;;;;;;7.07;30.66;96791.03;4959202;28;20568;-90